Time;durP1;ratioP1;P1;durP2;ratioP2;P2;SDS_P1;SDS_P2;PMS_P1;PMS_P2;Temp;Humidity;BMP_temperature;BMP_pressure;BME280_temperature;BME280_humidity;BME280_pressure;Samples;Min_cycle;Max_cycle;Signal;HPM_P1;HPM_P2
2022/06/06 11:18:14;;;;;;;;;;;;;;;26.22;100.00;98367.75;4844792;29;19974;-71
2022/06/06 11:20:51;;;;;;;;;;;;;;;26.29;100.00;98375.94;4845233;29;20339;-71
2022/06/06 11:23:41;;;;;;;;;;;;;;;26.38;100.00;98370.84;4857212;29;19961;-72
2022/06/06 11:26:18;;;;;;;;;;;;;;;26.41;100.00;98366.94;4857684;29;20329;-72
2022/06/06 11:28:51;;;;;;;;;;;;;;;26.62;100.00;98367.72;4861538;29;19966;-72
2022/06/06 11:31:30;;;;;;;;;;;;;;;26.66;100.00;98362.53;4852629;29;19954;-72
2022/06/06 11:34:01;;;;;;;;;;;;;;;26.55;100.00;98359.56;4854696;29;20037;-72
2022/06/06 11:36:46;;;;;;;;;;;;;;;26.47;100.00;98353.47;4861925;29;19960;-71
2022/06/06 11:39:14;;;;;;;;;;;;;;;26.59;100.00;98357.25;4852352;29;20364;-71
2022/06/06 11:41:50;;;;;;;;;;;;;;;26.43;100.00;98347.19;4858207;29;19956;-71
2022/06/06 11:44:36;;;;;;;;;;;;;;;26.43;100.00;98343.53;4863827;29;19959;-72
2022/06/06 11:47:26;;;;;;;;;;;;;;;26.40;100.00;98344.53;4863602;29;19951;-71
2022/06/06 11:50:02;;;;;;;;;;;;;;;26.44;100.00;98342.22;4861654;29;19949;-71
2022/06/06 11:52:38;;;;;;;;;;;;;;;26.41;100.00;98340.38;4858702;29;19965;-72
2022/06/06 11:55:08;;;;;;;;;;;;;;;26.44;100.00;98336.47;4862187;29;19958;-71
2022/06/06 11:57:36;;;;;;;;;;;;;;;26.39;100.00;98343.72;4854272;29;19954;-70
2022/06/06 12:00:04;;;;;;;;;;;;;;;26.34;100.00;98344.44;4859630;29;19949;-70
2022/06/06 12:02:41;;;;;;;;;;;;;;;26.43;100.00;98346.38;4867856;29;20384;-69
2022/06/06 12:05:14;;;;;;;;;;;;;;;26.46;100.00;98346.16;4866270;29;20381;-71
2022/06/06 12:08:00;;;;;;;;;;;;;;;26.52;100.00;98341.28;4866163;29;20399;-71
2022/06/06 12:10:34;;;;;;;;;;;;;;;26.57;100.00;98331.94;4865674;29;19960;-71
2022/06/06 12:13:36;;;;;;;;;;;;;;;26.45;100.00;98340.94;4863628;29;20340;-71
2022/06/06 12:16:12;;;;;;;;;;;;;;;26.50;100.00;98335.25;4805519;29;19954;-71
2022/06/06 12:18:46;;;;;;;;;;;;;;;26.64;100.00;98333.56;4858323;29;20289;-71
2022/06/06 12:21:16;;;;;;;;;;;;;;;26.79;100.00;98327.75;4861527;29;19957;-71
2022/06/06 12:23:58;;;;;;;;;;;;;;;26.81;100.00;98330.91;4866560;29;19987;-72
2022/06/06 12:26:35;;;;;;;;;;;;;;;26.69;100.00;98327.91;4864014;29;19951;-71
2022/06/06 12:29:02;;;;;;;;;;;;;;;26.64;100.00;98319.22;4866095;29;19975;-71
2022/06/06 12:31:36;;;;;;;;;;;;;;;26.53;100.00;98316.25;4862002;29;19953;-71
2022/06/06 12:34:15;;;;;;;;;;;;;;;26.47;100.00;98313.31;4865820;29;19952;-72
2022/06/06 12:36:58;;;;;;;;;;;;;;;26.41;100.00;98308.84;4865625;29;19952;-72
2022/06/06 12:39:36;;;;;;;;;;;;;;;26.64;100.00;98313.50;4866024;29;20249;-72
2022/06/06 12:42:22;;;;;;;;;;;;;;;26.60;100.00;98310.88;4857664;29;20341;-72
2022/06/06 12:45:05;;;;;;;;;;;;;;;26.61;100.00;98312.44;4863666;29;20350;-72
2022/06/06 12:47:48;;;;;;;;;;;;;;;26.56;100.00;98304.53;4846125;29;19954;-72
2022/06/06 12:50:20;;;;;;;;;;;;;;;26.59;100.00;98306.41;4863831;29;19955;-72
2022/06/06 12:53:06;;;;;;;;;;;;;;;26.64;100.00;98297.06;4864939;29;19967;-72
2022/06/06 12:56:14;;;;;;;;;;;;;;;26.85;100.00;98291.31;4859666;29;19951;-72
2022/06/06 12:58:46;;;;;;;;;;;;;;;27.04;100.00;98283.91;4860174;29;19960;-73
2022/06/06 13:04:08;;;;;;;;;;;;;;;26.86;100.00;98279.31;4865438;29;19952;-72
2022/06/06 13:06:54;;;;;;;;;;;;;;;26.75;100.00;98273.44;4865536;29;19956;-72
2022/06/06 13:09:24;;;;;;;;;;;;;;;26.77;100.00;98267.22;4865793;29;19972;-73
2022/06/06 13:12:10;;;;;;;;;;;;;;;26.89;100.00;98271.75;4865835;29;19954;-73
2022/06/06 13:14:48;;;;;;;;;;;;;;;27.05;100.00;98271.91;4861747;29;19952;-73
2022/06/06 13:17:29;;;;;;;;;;;;;;;27.04;100.00;98270.34;4862217;29;19980;-73
2022/06/06 13:20:16;;;;;;;;;;;;;;;27.21;100.00;98270.47;4865260;29;19952;-72
2022/06/06 13:22:59;;;;;;;;;;;;;;;27.14;100.00;98280.31;4849288;29;19956;-72
2022/06/06 13:25:26;;;;;;;;;;;;;;;27.03;100.00;98282.31;4865255;29;19951;-72
2022/06/06 13:27:57;;;;;;;;;;;;;;;26.96;100.00;98277.03;4865232;29;19953;-72
2022/06/06 13:30:27;;;;;;;;;;;;;;;26.81;100.00;98282.13;4865103;29;20340;-73
2022/06/06 13:33:14;;;;;;;;;;;;;;;26.84;100.00;98276.16;4863270;29;19956;-73
2022/06/06 13:35:49;;;;;;;;;;;;;;;26.94;100.00;98274.69;4865398;29;20242;-72
2022/06/06 13:38:24;;;;;;;;;;;;;;;26.96;100.00;98266.34;4848848;29;19956;-72
2022/06/06 13:41:02;;;;;;;;;;;;;;;27.10;100.00;98250.25;4865260;29;19951;-72
2022/06/06 13:43:52;;;;;;;;;;;;;;;27.24;100.00;98263.69;4865142;29;19956;-72
2022/06/06 13:46:38;;;;;;;;;;;;;;;27.37;100.00;98252.53;4857678;29;20319;-72
2022/06/06 13:49:20;;;;;;;;;;;;;;;27.07;100.00;98242.69;4864894;29;20271;-73
2022/06/06 13:52:02;;;;;;;;;;;;;;;26.84;100.00;98250.34;4864158;29;20370;-72
2022/06/06 13:54:30;;;;;;;;;;;;;;;26.83;100.00;98257.34;4865218;29;19963;-72
2022/06/06 13:57:00;;;;;;;;;;;;;;;26.78;100.00;98258.09;4864645;29;19955;-72
2022/06/06 13:59:37;;;;;;;;;;;;;;;26.80;100.00;98241.16;4864175;29;19952;-72
2022/06/06 14:02:10;;;;;;;;;;;;;;;26.85;100.00;98240.41;4864576;29;19952;-73
2022/06/06 14:04:41;;;;;;;;;;;;;;;26.85;100.00;98246.16;4864417;29;19960;-72
2022/06/06 14:07:11;;;;;;;;;;;;;;;26.94;100.00;98239.47;4861862;29;19957;-73
2022/06/06 14:09:42;;;;;;;;;;;;;;;26.87;100.00;98237.84;4864264;29;19983;-73
2022/06/06 14:12:18;;;;;;;;;;;;;;;26.93;100.00;98243.59;4863772;29;20252;-73
2022/06/06 14:14:46;;;;;;;;;;;;;;;26.84;100.00;98226.59;4864554;29;19951;-72
2022/06/06 14:17:22;;;;;;;;;;;;;;;26.81;100.00;98227.59;4848674;29;20015;-72
2022/06/06 14:19:57;;;;;;;;;;;;;;;26.58;100.00;98238.09;4864545;29;19963;-73
2022/06/06 14:22:28;;;;;;;;;;;;;;;26.60;100.00;98232.63;4863610;29;20246;-72
2022/06/06 14:24:56;;;;;;;;;;;;;;;26.54;100.00;98243.25;4864142;29;19952;-72
2022/06/06 14:27:25;;;;;;;;;;;;;;;26.57;100.00;98236.50;4863885;29;20524;-72
2022/06/06 14:29:58;;;;;;;;;;;;;;;26.50;100.00;98225.50;4864619;29;19968;-73
2022/06/06 14:32:33;;;;;;;;;;;;;;;26.44;100.00;98231.16;4863965;29;20284;-72
2022/06/06 14:35:22;;;;;;;;;;;;;;;26.25;100.00;98215.59;4863089;29;19994;-72
2022/06/06 14:37:49;;;;;;;;;;;;;;;26.22;100.00;98233.81;4864198;29;20358;-72
2022/06/06 14:40:36;;;;;;;;;;;;;;;26.12;100.00;98234.50;4864250;29;19946;-72
2022/06/06 14:43:05;;;;;;;;;;;;;;;26.06;100.00;98228.66;4864356;29;19985;-72
2022/06/06 14:45:34;;;;;;;;;;;;;;;26.00;100.00;98224.94;4833079;29;19956;-73
2022/06/06 14:48:06;;;;;;;;;;;;;;;25.96;100.00;98227.25;4864018;29;19953;-72
2022/06/06 14:50:45;;;;;;;;;;;;;;;25.93;100.00;98233.97;4863549;29;19969;-72
2022/06/06 14:53:25;;;;;;;;;;;;;;;25.94;100.00;98224.09;4864383;29;20376;-73
2022/06/06 14:56:06;;;;;;;;;;;;;;;25.88;100.00;98220.38;4863705;29;19967;-73
2022/06/06 14:58:34;;;;;;;;;;;;;;;25.84;100.00;98231.28;4864205;29;19951;-72
2022/06/06 15:01:18;;;;;;;;;;;;;;;25.82;100.00;98231.75;4864099;29;19958;-72
2022/06/06 15:03:47;;;;;;;;;;;;;;;25.78;100.00;98236.13;4862931;29;19964;-73
2022/06/06 15:06:16;;;;;;;;;;;;;;;25.80;100.00;98225.75;4861643;29;20234;-73
2022/06/06 15:08:49;;;;;;;;;;;;;;;25.80;100.00;98219.25;4873324;29;20346;-73
2022/06/06 15:11:19;;;;;;;;;;;;;;;25.79;100.00;98212.72;4863017;29;19956;-72
2022/06/06 15:13:50;;;;;;;;;;;;;;;25.75;100.00;98209.28;4847726;29;19958;-72
2022/06/06 15:16:18;;;;;;;;;;;;;;;25.71;100.00;98213.66;4863408;29;20293;-72
2022/06/06 15:18:49;;;;;;;;;;;;;;;25.69;100.00;98207.66;4862799;29;19948;-72
2022/06/06 15:21:16;;;;;;;;;;;;;;;25.67;100.00;98196.69;4863268;29;19954;-72
2022/06/06 15:23:48;;;;;;;;;;;;;;;25.63;100.00;98203.94;4863844;29;19951;-72
2022/06/06 15:26:18;;;;;;;;;;;;;;;25.56;100.00;98204.34;4859770;29;19961;-72
2022/06/06 15:28:54;;;;;;;;;;;;;;;25.51;100.00;98197.25;4863576;29;20265;-72
2022/06/06 15:31:26;;;;;;;;;;;;;;;25.50;100.00;98198.56;4847884;29;19954;-73
2022/06/06 15:33:53;;;;;;;;;;;;;;;25.55;100.00;98199.91;4864208;29;19952;-73
2022/06/06 15:36:39;;;;;;;;;;;;;;;25.51;100.00;98196.47;4867297;29;19944;-73
2022/06/06 15:39:25;;;;;;;;;;;;;;;25.52;100.00;98198.84;4867233;29;19958;-72
2022/06/06 15:41:52;;;;;;;;;;;;;;;25.53;100.00;98199.66;4866520;29;19956;-72
2022/06/06 15:44:22;;;;;;;;;;;;;;;25.50;100.00;98183.47;4867064;29;19952;-72
2022/06/06 15:46:54;;;;;;;;;;;;;;;25.46;100.00;98186.53;4869450;29;20346;-73
2022/06/06 15:49:41;;;;;;;;;;;;;;;25.41;100.00;98187.22;4867459;29;19975;-72
2022/06/06 15:52:20;;;;;;;;;;;;;;;25.36;100.00;98185.84;4867980;29;19958;-72
2022/06/06 15:54:58;;;;;;;;;;;;;;;25.33;100.00;98180.34;4870305;29;19950;-72
2022/06/06 15:57:33;;;;;;;;;;;;;;;25.30;100.00;98175.63;4869327;29;19952;-72
2022/06/06 16:00:15;;;;;;;;;;;;;;;25.26;100.00;98175.81;4871548;29;19955;-72
2022/06/06 16:02:47;;;;;;;;;;;;;;;25.22;100.00;98175.25;4866013;29;19964;-72
2022/06/06 16:05:18;;;;;;;;;;;;;;;25.18;100.00;98183.28;4866242;29;20395;-72
2022/06/06 16:07:54;;;;;;;;;;;;;;;25.10;100.00;98176.38;4868000;29;19950;-72
2022/06/06 16:10:45;;;;;;;;;;;;;;;25.05;100.00;98177.09;4865310;29;19966;-72
2022/06/06 16:13:18;;;;;;;;;;;;;;;25.01;100.00;98170.81;4861710;29;19950;-73
2022/06/06 16:15:45;;;;;;;;;;;;;;;24.98;100.00;98171.78;4866282;29;19958;-72
2022/06/06 16:18:22;;;;;;;;;;;;;;;24.94;100.00;98162.66;4866439;29;19973;-73
2022/06/06 16:20:59;;;;;;;;;;;;;;;24.92;100.00;98158.72;4867066;29;19949;-72
2022/06/06 16:23:31;;;;;;;;;;;;;;;24.93;100.00;98160.25;4866398;29;19954;-72
2022/06/06 16:26:13;;;;;;;;;;;;;;;24.93;100.00;98152.47;4862360;29;19954;-73
2022/06/06 16:28:46;;;;;;;;;;;;;;;24.96;100.00;98157.22;4860252;29;20213;-73
2022/06/06 16:31:31;;;;;;;;;;;;;;;25.04;100.00;98157.59;4863351;29;20004;-72
2022/06/06 16:34:11;;;;;;;;;;;;;;;25.09;100.00;98156.88;4860091;29;19961;-72
2022/06/06 16:36:50;;;;;;;;;;;;;;;25.21;100.00;98161.47;4864503;29;19984;-73
2022/06/06 16:39:23;;;;;;;;;;;;;;;25.36;100.00;98156.44;4863208;29;19946;-72
2022/06/06 16:47:59;;;;;;;;;;;;;;;25.71;100.00;98160.03;4860022;29;19958;-71
2022/06/06 16:50:38;;;;;;;;;;;;;;;25.78;100.00;98159.56;4862652;29;20365;-71
2022/06/06 16:53:11;;;;;;;;;;;;;;;25.86;100.00;98154.19;4863425;29;19949;-71
2022/06/06 16:55:42;;;;;;;;;;;;;;;25.89;100.00;98150.31;4861743;29;19952;-71
2022/06/06 16:58:15;;;;;;;;;;;;;;;25.92;100.00;98152.94;4856478;29;19985;-71
2022/06/06 17:00:45;;;;;;;;;;;;;;;25.95;100.00;98145.44;4862473;29;19952;-72
2022/06/06 17:03:31;;;;;;;;;;;;;;;25.98;100.00;98148.06;4863452;29;19952;-72
2022/06/06 17:09:00;;;;;;;;;;;;;;;25.92;100.00;98138.63;4862662;29;19955;-73
2022/06/06 17:11:41;;;;;;;;;;;;;;;25.92;100.00;98140.72;4858187;29;19974;-74
2022/06/06 17:14:11;;;;;;;;;;;;;;;25.90;100.00;98141.22;4864455;29;19952;-73
2022/06/06 17:16:57;;;;;;;;;;;;;;;25.90;100.00;98131.81;4863477;29;19979;-71
2022/06/06 17:19:38;;;;;;;;;;;;;;;25.85;100.00;98129.69;4860000;29;19954;-72
2022/06/06 17:22:09;;;;;;;;;;;;;;;25.74;100.00;98127.50;4863573;29;19974;-72
2022/06/06 17:24:36;;;;;;;;;;;;;;;25.70;100.00;98126.16;4864499;29;19956;-74
2022/06/06 17:27:09;;;;;;;;;;;;;;;25.62;100.00;98131.56;4864855;29;19953;-71
2022/06/06 17:29:46;;;;;;;;;;;;;;;25.58;100.00;98127.34;4859958;29;19956;-74
2022/06/06 17:32:15;;;;;;;;;;;;;;;25.52;100.00;98135.06;4859923;29;20280;-73
2022/06/06 17:34:56;;;;;;;;;;;;;;;25.47;100.00;98150.09;4861964;29;19990;-73
2022/06/06 17:37:30;;;;;;;;;;;;;;;25.34;100.00;98142.63;4863735;29;20251;-73
2022/06/06 17:39:58;;;;;;;;;;;;;;;25.26;100.00;98147.19;4861001;29;20344;-73
2022/06/06 17:42:29;;;;;;;;;;;;;;;25.18;100.00;98156.72;4857797;29;19953;-73
2022/06/06 17:45:00;;;;;;;;;;;;;;;25.13;100.00;98152.50;4862897;29;20257;-73
2022/06/06 17:47:52;;;;;;;;;;;;;;;25.08;100.00;98153.22;4860396;29;20355;-73
2022/06/06 17:50:32;;;;;;;;;;;;;;;25.05;100.00;98148.50;4860434;29;19967;-73
2022/06/06 17:53:03;;;;;;;;;;;;;;;25.03;100.00;98138.81;4861464;29;19953;-73
2022/06/06 17:55:49;;;;;;;;;;;;;;;25.01;100.00;98147.91;4861986;29;19958;-73
2022/06/06 17:58:38;;;;;;;;;;;;;;;25.01;100.00;98141.41;4861151;29;19957;-74
2022/06/06 18:01:31;;;;;;;;;;;;;;;24.97;100.00;98137.94;4862495;29;20240;-74
2022/06/06 18:04:18;;;;;;;;;;;;;;;24.92;100.00;98133.72;4864818;29;19956;-73
2022/06/06 18:07:16;;;;;;;;;;;;;;;24.88;100.00;98133.16;4860752;29;19951;-73
2022/06/06 18:09:43;;;;;;;;;;;;;;;24.85;100.00;98139.88;4857383;29;20242;-73
2022/06/06 18:12:36;;;;;;;;;;;;;;;24.83;100.00;98135.94;4861559;29;19958;-73
2022/06/06 18:15:04;;;;;;;;;;;;;;;24.86;100.00;98137.81;4859777;29;19955;-74
2022/06/06 18:17:44;;;;;;;;;;;;;;;24.85;100.00;98139.88;4862355;29;19988;-73
2022/06/06 18:20:30;;;;;;;;;;;;;;;24.87;100.00;98145.09;4863331;29;19955;-77
2022/06/06 18:23:04;;;;;;;;;;;;;;;24.83;100.00;98151.03;4861701;29;19957;-90
2022/06/06 18:25:33;;;;;;;;;;;;;;;24.79;100.00;98148.38;4867361;29;19948;-71
2022/06/06 18:28:02;;;;;;;;;;;;;;;24.73;100.00;98150.34;4865044;29;19952;-72
2022/06/06 18:30:32;;;;;;;;;;;;;;;24.71;100.00;98143.53;4861719;29;19969;-73
2022/06/06 18:33:01;;;;;;;;;;;;;;;24.68;100.00;98147.38;4860527;29;19961;-72
2022/06/06 18:35:32;;;;;;;;;;;;;;;24.64;100.00;98146.81;4862382;29;19952;-73
2022/06/06 18:38:11;;;;;;;;;;;;;;;24.64;100.00;98147.59;4859688;29;19960;-72
2022/06/06 18:40:41;;;;;;;;;;;;;;;24.63;100.00;98145.22;4843481;29;20254;-72
2022/06/06 18:43:23;;;;;;;;;;;;;;;24.58;100.00;98129.56;4859996;29;19956;-73
2022/06/06 18:45:51;;;;;;;;;;;;;;;24.55;100.00;98126.91;4856109;29;19953;-76
2022/06/06 18:48:21;;;;;;;;;;;;;;;24.49;100.00;98126.81;4859668;29;19951;-75
2022/06/06 18:50:58;;;;;;;;;;;;;;;24.44;100.00;98121.00;4863410;29;20423;-76
2022/06/06 18:53:44;;;;;;;;;;;;;;;24.35;100.00;98118.28;4861049;29;20269;-75
2022/06/06 18:56:21;;;;;;;;;;;;;;;24.29;100.00;98118.19;4859567;29;19952;-77
2022/06/06 18:58:51;;;;;;;;;;;;;;;24.26;100.00;98121.25;4861265;29;19950;-77
2022/06/06 19:01:34;;;;;;;;;;;;;;;24.24;100.00;98118.88;4862746;29;19956;-74
2022/06/06 19:04:05;;;;;;;;;;;;;;;24.17;100.00;98120.06;4861859;29;19952;-72
2022/06/06 19:06:37;;;;;;;;;;;;;;;24.07;100.00;98115.75;4843162;29;19959;-72
2022/06/06 19:09:24;;;;;;;;;;;;;;;23.98;100.00;98118.66;4844482;29;20045;-72
2022/06/06 19:11:52;;;;;;;;;;;;;;;23.92;100.00;98114.13;4861953;29;19969;-73
2022/06/06 19:14:24;;;;;;;;;;;;;;;23.83;100.00;98109.31;4861004;29;19958;-72
2022/06/06 19:16:53;;;;;;;;;;;;;;;23.77;100.00;98119.81;4859532;29;20399;-72
2022/06/06 19:19:25;;;;;;;;;;;;;;;23.73;100.00;98116.38;4862655;29;19960;-72
2022/06/06 19:21:54;;;;;;;;;;;;;;;23.66;100.00;98110.28;4858014;29;19948;-73
2022/06/06 19:24:26;;;;;;;;;;;;;;;23.61;100.00;98110.97;4841051;29;20353;-72
2022/06/06 19:26:59;;;;;;;;;;;;;;;23.54;100.00;98115.00;4860687;29;19964;-72
2022/06/06 19:29:28;;;;;;;;;;;;;;;23.47;100.00;98118.22;4857188;29;19956;-70
2022/06/06 19:47:07;;;;;;;;;;;;;;;23.22;100.00;98127.28;4843233;29;20361;-71
2022/06/06 19:49:37;;;;;;;;;;;;;;;23.12;100.00;98117.19;4855336;29;19950;-72
2022/06/06 19:52:09;;;;;;;;;;;;;;;23.06;100.00;98130.56;4861513;29;19997;-72
2022/06/06 19:54:38;;;;;;;;;;;;;;;23.06;100.00;98128.47;4861657;29;19955;-72
2022/06/06 19:57:20;;;;;;;;;;;;;;;23.04;100.00;98133.09;4858347;29;19956;-72
2022/06/06 19:59:47;;;;;;;;;;;;;;;23.04;100.00;98136.75;4860338;29;19951;-72
2022/06/06 20:02:20;;;;;;;;;;;;;;;23.03;100.00;98125.84;4861774;29;19964;-71
2022/06/06 20:04:49;;;;;;;;;;;;;;;23.05;100.00;98132.63;4851004;29;19953;-72
2022/06/06 20:07:31;;;;;;;;;;;;;;;23.08;100.00;98137.38;4860940;29;20246;-72
2022/06/06 20:10:02;;;;;;;;;;;;;;;23.08;100.00;98137.38;4850751;29;19949;-72
2022/06/06 20:12:30;;;;;;;;;;;;;;;23.09;100.00;98138.94;4857777;29;20279;-72
2022/06/06 20:15:02;;;;;;;;;;;;;;;23.10;100.00;98137.66;4854576;29;19956;-70
2022/06/06 20:17:35;;;;;;;;;;;;;;;23.08;100.00;98137.38;4856240;29;19956;-72
2022/06/06 20:20:26;;;;;;;;;;;;;;;23.07;100.00;98143.53;4844688;29;20272;-72
2022/06/06 20:23:01;;;;;;;;;;;;;;;23.03;100.00;98145.78;4847933;29;19959;-71
2022/06/06 20:25:34;;;;;;;;;;;;;;;22.95;100.00;98141.72;4846772;29;19957;-70
2022/06/06 20:28:03;;;;;;;;;;;;;;;22.85;100.00;98144.63;4860994;29;19959;-73
2022/06/06 20:30:32;;;;;;;;;;;;;;;22.78;100.00;98147.06;4865048;29;19962;-69
2022/06/06 20:33:11;;;;;;;;;;;;;;;22.74;100.00;98140.75;4864034;29;19963;-70
2022/06/06 20:35:39;;;;;;;;;;;;;;;22.65;100.00;98141.56;4863635;29;19956;-70
2022/06/06 20:38:07;;;;;;;;;;;;;;;22.64;100.00;98142.06;4857944;29;19967;-71
2022/06/06 20:40:47;;;;;;;;;;;;;;;22.60;100.00;98139.34;4868294;29;19953;-71
2022/06/06 20:43:31;;;;;;;;;;;;;;;22.60;100.00;98135.72;4864238;29;19964;-70
2022/06/06 20:46:02;;;;;;;;;;;;;;;22.65;100.00;98137.94;4863765;29;20380;-71
2022/06/06 20:48:52;;;;;;;;;;;;;;;22.67;100.00;98135.38;4865348;29;19957;-71
2022/06/06 20:51:23;;;;;;;;;;;;;;;22.67;100.00;98139.03;4856112;29;19972;-71
2022/06/06 20:53:55;;;;;;;;;;;;;;;22.64;100.00;98137.13;4865639;29;19954;-71
2022/06/06 20:56:31;;;;;;;;;;;;;;;22.62;100.00;98130.38;4862955;29;19966;-71
2022/06/06 20:58:58;;;;;;;;;;;;;;;22.61;100.00;98140.16;4863458;29;19955;-72
2022/06/06 21:01:32;;;;;;;;;;;;;;;22.60;100.00;98145.06;4863628;29;19963;-72
2022/06/06 21:04:00;;;;;;;;;;;;;;;22.57;100.00;98146.00;4861822;29;19956;-71
2022/06/06 21:06:28;;;;;;;;;;;;;;;22.51;100.00;98141.47;4862711;29;20378;-72
2022/06/06 21:09:04;;;;;;;;;;;;;;;22.41;100.00;98139.91;4863381;29;19959;-71
2022/06/06 21:11:35;;;;;;;;;;;;;;;22.31;100.00;98139.16;4853555;29;19965;-72
2022/06/06 21:14:03;;;;;;;;;;;;;;;22.25;100.00;98132.56;4846245;29;19951;-71
2022/06/06 21:16:31;;;;;;;;;;;;;;;22.19;100.00;98143.00;4849713;29;19976;-73
2022/06/06 21:18:59;;;;;;;;;;;;;;;22.16;100.00;98152.50;4860633;29;19962;-71
2022/06/06 21:21:30;;;;;;;;;;;;;;;22.11;100.00;98145.41;4863163;29;19958;-73
2022/06/06 21:23:59;;;;;;;;;;;;;;;22.08;100.00;98149.19;4864520;29;19954;-71
2022/06/06 21:26:26;;;;;;;;;;;;;;;22.04;100.00;98139.25;4862429;29;20359;-73
2022/06/06 21:28:54;;;;;;;;;;;;;;;22.02;100.00;98136.88;4858101;29;20390;-73
2022/06/06 21:31:21;;;;;;;;;;;;;;;21.96;100.00;98143.72;4855871;29;19954;-73
2022/06/06 21:33:48;;;;;;;;;;;;;;;21.89;100.00;98138.34;4847298;29;19955;-72
2022/06/06 21:36:16;;;;;;;;;;;;;;;21.79;100.00;98134.69;4863191;29;19987;-73
2022/06/06 21:38:43;;;;;;;;;;;;;;;21.77;100.00;98144.97;4873321;29;19989;-72
2022/06/06 21:41:10;;;;;;;;;;;;;;;21.69;100.00;98141.66;4863653;29;20242;-73
2022/06/06 21:43:40;;;;;;;;;;;;;;;21.70;100.00;98148.16;4863348;29;19950;-73
2022/06/06 21:46:08;;;;;;;;;;;;;;;21.73;100.00;98142.31;4863619;29;19956;-72
2022/06/06 21:48:35;;;;;;;;;;;;;;;21.79;100.00;98139.63;4863488;29;19956;-71
2022/06/06 21:53:58;;;;;;;;;;;;;;;21.80;100.00;98146.88;4863657;29;19951;-72
2022/06/06 21:56:27;;;;;;;;;;;;;;;21.83;100.00;98160.16;4861317;29;20962;-71
2022/06/06 21:58:55;;;;;;;;;;;;;;;21.79;100.00;98151.00;4853598;29;19962;-72
2022/06/06 22:01:24;;;;;;;;;;;;;;;21.89;100.00;98149.72;4861827;29;19949;-79
2022/06/06 22:03:53;;;;;;;;;;;;;;;21.92;100.00;98143.06;4850372;29;20353;-81
2022/06/06 22:06:21;;;;;;;;;;;;;;;21.95;100.00;98148.63;4865917;29;19952;-73
2022/06/06 22:08:48;;;;;;;;;;;;;;;21.91;100.00;98133.75;4863696;29;19952;-73
2022/06/06 22:11:17;;;;;;;;;;;;;;;21.91;100.00;98139.44;4868428;29;19955;-72
2022/06/06 22:13:45;;;;;;;;;;;;;;;21.87;100.00;98138.03;4863169;29;19974;-74
2022/06/06 22:16:13;;;;;;;;;;;;;;;21.80;100.00;98136.28;4862526;29;19979;-74
2022/06/06 22:18:41;;;;;;;;;;;;;;;21.81;100.00;98122.84;4856719;29;19952;-74
2022/06/06 22:21:09;;;;;;;;;;;;;;;21.70;100.00;98131.06;4868653;29;19957;-78
2022/06/06 22:23:38;;;;;;;;;;;;;;;21.68;100.00;98133.59;4861230;29;19955;-73
2022/06/06 22:26:06;;;;;;;;;;;;;;;21.57;100.00;98134.09;4864152;29;19955;-72
2022/06/06 22:28:34;;;;;;;;;;;;;;;21.47;100.00;98133.31;4852540;29;19951;-73
